createdAt,value
2022-10-16T00:01:26.706Z,68.36
2022-10-16T00:03:53.335Z,69.20
2022-10-16T00:06:20.643Z,69.06
2022-10-16T00:08:47.693Z,68.57
2022-10-16T00:11:24.140Z,68.69
2022-10-16T00:13:51.772Z,68.66
2022-10-16T00:16:18.566Z,68.81
2022-10-16T00:18:45.236Z,68.65
2022-10-16T00:21:19.721Z,68.38
2022-10-16T00:23:46.626Z,68.35
2022-10-16T00:26:14.909Z,68.51
2022-10-16T00:28:41.568Z,68.03
2022-10-16T00:31:10.184Z,67.88
2022-10-16T00:33:38.484Z,67.98
2022-10-16T00:36:06.029Z,67.91
2022-10-16T00:38:32.726Z,67.95
2022-10-16T00:40:59.329Z,67.92
2022-10-16T00:43:47.286Z,67.81
2022-10-16T00:46:38.691Z,67.90
2022-10-16T00:49:16.173Z,67.82
2022-10-16T00:51:46.077Z,67.69
2022-10-16T00:54:18.820Z,67.98
2022-10-16T00:56:45.716Z,67.71
2022-10-16T00:59:17.573Z,68.17
2022-10-16T01:01:44.160Z,68.54
2022-10-16T01:04:10.884Z,68.33
2022-10-16T01:06:54.693Z,68.68
2022-10-16T01:10:06.249Z,68.76
2022-10-16T01:12:53.284Z,68.88
2022-10-16T01:15:27.935Z,69.14
2022-10-16T01:18:11.005Z,68.96
2022-10-16T01:20:46.383Z,68.86
2022-10-16T01:23:25.037Z,69.21
2022-10-16T01:26:15.354Z,69.41
2022-10-16T01:28:47.088Z,69.22
2022-10-16T01:31:13.736Z,69.03
2022-10-16T01:33:43.790Z,69.24
2022-10-16T01:36:16.034Z,69.38
2022-10-16T01:38:42.622Z,69.30
2022-10-16T01:41:12.456Z,69.33
2022-10-16T01:43:45.032Z,69.56
2022-10-16T01:46:11.716Z,69.74
2022-10-16T01:48:38.365Z,69.11
2022-10-16T01:51:07.853Z,69.33
2022-10-16T01:53:34.471Z,69.28
2022-10-16T01:56:01.052Z,69.55
2022-10-16T01:58:27.923Z,69.40
2022-10-16T02:00:54.743Z,69.15
2022-10-16T02:03:21.902Z,69.64
2022-10-16T02:05:48.556Z,69.75
2022-10-16T02:08:15.197Z,69.50
2022-10-16T02:10:41.829Z,69.87
2022-10-16T02:13:15.367Z,69.94
2022-10-16T02:15:42.104Z,69.66
2022-10-16T02:18:08.931Z,69.67
2022-10-16T02:20:39.593Z,69.70
2022-10-16T02:23:06.311Z,69.67
2022-10-16T02:25:35.938Z,69.39
2022-10-16T02:28:09.715Z,69.31
2022-10-16T02:30:52.235Z,69.39
2022-10-16T02:33:19.009Z,69.32
2022-10-16T02:35:46.183Z,69.51
2022-10-16T02:38:13.027Z,69.71
2022-10-16T02:40:39.666Z,70.83
2022-10-16T02:43:06.529Z,70.25
2022-10-16T02:45:33.141Z,70.71
2022-10-16T02:47:59.752Z,70.78
2022-10-16T02:50:26.304Z,70.50
2022-10-16T02:52:52.904Z,71.14
2022-10-16T02:55:19.645Z,71.11
2022-10-16T02:57:46.462Z,70.96
2022-10-16T03:00:14.605Z,70.77
2022-10-16T03:02:41.259Z,70.55
2022-10-16T03:05:08.330Z,71.09
2022-10-16T03:07:35.006Z,69.84
2022-10-16T03:10:01.640Z,69.53
2022-10-16T03:12:29.090Z,70.04
2022-10-16T03:14:57.570Z,69.83
2022-10-16T03:17:24.922Z,70.10
2022-10-16T03:19:51.730Z,70.20
2022-10-16T03:22:18.337Z,69.13
2022-10-16T03:24:44.917Z,68.95
2022-10-16T03:27:11.471Z,68.82
2022-10-16T03:29:38.048Z,68.76
2022-10-16T03:32:04.797Z,68.81
2022-10-16T03:34:31.377Z,68.05
2022-10-16T03:36:57.976Z,67.80
2022-10-16T03:39:24.874Z,67.52
2022-10-16T03:41:51.610Z,67.68
2022-10-16T03:44:18.175Z,67.36
2022-10-16T03:46:44.764Z,66.85
2022-10-16T03:49:11.337Z,66.42
2022-10-16T03:51:38.441Z,66.66
2022-10-16T03:54:05.011Z,66.83
2022-10-16T03:56:31.599Z,66.92
2022-10-16T03:58:58.333Z,66.52
2022-10-16T04:01:26.401Z,66.72
2022-10-16T04:03:52.982Z,66.94
2022-10-16T04:06:19.725Z,66.59
2022-10-16T04:08:46.481Z,66.70
2022-10-16T04:11:13.172Z,66.79
2022-10-16T04:13:39.727Z,66.22
2022-10-16T04:16:06.642Z,66.80
2022-10-16T04:18:33.390Z,66.52
2022-10-16T04:21:04.776Z,66.49
2022-10-16T04:23:31.575Z,66.49
2022-10-16T04:25:58.166Z,66.73
2022-10-16T04:28:24.762Z,66.94
2022-10-16T04:30:51.710Z,67.00
2022-10-16T04:33:19.382Z,66.91
2022-10-16T04:35:45.984Z,66.70
2022-10-16T04:38:12.590Z,66.49
2022-10-16T04:40:39.393Z,66.67
2022-10-16T04:43:06.315Z,66.84
2022-10-16T04:45:32.951Z,66.89
2022-10-16T04:47:59.958Z,67.18
2022-10-16T04:50:26.703Z,67.16
2022-10-16T04:52:53.324Z,67.25
2022-10-16T04:55:20.040Z,67.47
2022-10-16T04:57:46.646Z,67.56
2022-10-16T05:00:13.756Z,67.47
2022-10-16T05:02:40.528Z,66.42
2022-10-16T05:05:07.967Z,66.85
2022-10-16T05:07:34.590Z,67.24
2022-10-16T05:10:01.330Z,67.36
2022-10-16T05:12:27.959Z,67.25
2022-10-16T05:14:59.361Z,67.21
2022-10-16T05:17:27.004Z,67.55
2022-10-16T05:19:53.860Z,67.06
2022-10-16T05:22:20.620Z,67.67
2022-10-16T05:24:47.169Z,67.52
2022-10-16T05:27:19.770Z,67.58
2022-10-16T05:29:49.557Z,67.06
2022-10-16T05:32:16.853Z,67.69
2022-10-16T05:34:43.675Z,67.54
2022-10-16T05:37:10.590Z,67.39
2022-10-16T05:39:38.111Z,67.88
2022-10-16T05:42:05.471Z,67.78
2022-10-16T05:44:32.061Z,67.12
2022-10-16T05:46:58.792Z,66.62
2022-10-16T05:49:25.470Z,67.02
2022-10-16T05:51:52.218Z,66.50
2022-10-16T05:54:18.805Z,66.53
2022-10-16T05:56:45.454Z,66.65
2022-10-16T05:59:12.026Z,66.62
2022-10-16T06:01:38.578Z,66.21
2022-10-16T06:04:05.394Z,65.95
2022-10-16T06:06:32.270Z,65.98
2022-10-16T06:08:59.116Z,65.18
2022-10-16T06:11:27.614Z,64.34
2022-10-16T06:13:55.705Z,64.08
2022-10-16T06:16:22.349Z,63.17
2022-10-16T06:18:49.298Z,63.67
2022-10-16T06:21:18.713Z,64.28
2022-10-16T06:23:47.136Z,64.10
2022-10-16T06:26:15.277Z,64.10
2022-10-16T06:28:42.065Z,63.28
2022-10-16T06:31:09.573Z,63.24
2022-10-16T06:33:36.843Z,63.65
2022-10-16T06:36:11.809Z,62.97
2022-10-16T06:38:38.368Z,63.42
2022-10-16T06:41:05.695Z,63.20
2022-10-16T06:43:38.275Z,63.46
2022-10-16T06:46:05.868Z,63.52
2022-10-16T06:48:32.451Z,63.38
2022-10-16T06:51:15.981Z,63.25
2022-10-16T06:54:05.396Z,62.94
2022-10-16T06:56:32.545Z,62.17
2022-10-16T06:58:59.542Z,62.13
2022-10-16T07:01:26.209Z,61.61
2022-10-16T07:03:52.904Z,61.34
2022-10-16T07:06:21.140Z,61.26
2022-10-16T07:08:48.198Z,60.17
2022-10-16T07:11:16.729Z,60.48
2022-10-16T07:13:52.979Z,60.76
2022-10-16T07:16:23.513Z,59.74
2022-10-16T07:18:50.503Z,59.33
2022-10-16T07:21:21.539Z,57.21
2022-10-16T07:23:52.236Z,55.38
2022-10-16T07:26:18.793Z,52.30
2022-10-16T07:28:45.442Z,49.25
2022-10-16T07:31:16.921Z,48.32
2022-10-16T07:33:45.413Z,46.91
2022-10-16T07:36:16.599Z,44.09
2022-10-16T07:38:43.749Z,42.31
2022-10-16T07:41:15.432Z,41.52
2022-10-16T07:43:46.086Z,41.43
2022-10-16T07:46:13.068Z,41.08
2022-10-16T07:48:39.687Z,42.13
2022-10-16T07:51:07.185Z,43.18
2022-10-16T07:53:33.926Z,44.72
2022-10-16T07:56:01.330Z,46.50
2022-10-16T07:58:31.243Z,48.01
2022-10-16T08:00:58.141Z,49.71
2022-10-16T08:03:27.812Z,50.86
2022-10-16T08:05:54.459Z,51.50
2022-10-16T08:08:21.058Z,52.59
2022-10-16T08:10:47.680Z,53.18
2022-10-16T08:13:16.523Z,53.90
2022-10-16T08:15:46.351Z,54.91
2022-10-16T08:18:13.785Z,54.64
2022-10-16T08:20:42.355Z,54.98
2022-10-16T08:23:10.165Z,53.73
2022-10-16T08:25:37.425Z,53.16
2022-10-16T08:28:07.868Z,53.01
2022-10-16T08:30:34.538Z,52.81
2022-10-16T08:33:01.235Z,51.74
2022-10-16T08:35:27.886Z,51.68
2022-10-16T08:37:54.507Z,52.00
2022-10-16T08:40:34.252Z,51.55
2022-10-16T08:43:09.865Z,52.22
2022-10-16T08:45:43.278Z,52.11
2022-10-16T08:48:22.477Z,51.98
2022-10-16T08:50:49.059Z,52.73
2022-10-16T08:53:49.581Z,53.09
2022-10-16T08:56:16.162Z,53.03
2022-10-16T08:58:51.279Z,52.46
2022-10-16T09:01:20.921Z,53.24
2022-10-16T09:04:02.638Z,53.31
2022-10-16T09:07:03.654Z,53.55
2022-10-16T09:09:50.517Z,53.16
2022-10-16T09:12:38.453Z,54.66
2022-10-16T09:15:12.521Z,54.07
2022-10-16T09:18:00.259Z,54.28
2022-10-16T09:20:31.136Z,55.22
2022-10-16T09:23:09.853Z,56.28
2022-10-16T09:25:36.409Z,55.71
2022-10-16T09:28:02.951Z,56.59
2022-10-16T09:30:30.455Z,57.12
2022-10-16T09:32:58.533Z,57.68
2022-10-16T09:35:42.610Z,57.67
2022-10-16T09:38:09.574Z,56.96
2022-10-16T09:40:40.038Z,57.61
2022-10-16T09:43:30.581Z,56.80
2022-10-16T09:45:59.194Z,57.15
2022-10-16T09:48:33.024Z,56.92
2022-10-16T09:51:01.078Z,56.06
2022-10-16T09:53:44.590Z,57.64
2022-10-16T09:56:14.869Z,57.42
2022-10-16T09:58:45.732Z,55.96
2022-10-16T10:01:14.160Z,56.16
2022-10-16T10:03:41.940Z,56.38
2022-10-16T10:06:19.533Z,56.65
2022-10-16T10:08:56.258Z,55.61
2022-10-16T10:11:45.587Z,56.32
2022-10-16T10:14:37.614Z,56.72
2022-10-16T10:17:07.045Z,56.86
2022-10-16T10:19:53.423Z,56.92
2022-10-16T10:22:33.562Z,57.00
2022-10-16T10:25:09.386Z,56.31
2022-10-16T10:27:51.415Z,56.42
2022-10-16T10:30:25.437Z,55.50
2022-10-16T10:33:26.077Z,54.67
2022-10-16T10:36:00.713Z,56.15
2022-10-16T10:38:47.731Z,56.78
2022-10-16T10:41:31.365Z,55.59
2022-10-16T10:44:27.675Z,56.50
2022-10-16T10:46:58.782Z,57.06
2022-10-16T10:49:53.912Z,55.15
2022-10-16T10:52:32.753Z,53.87
2022-10-16T10:55:08.105Z,52.65
2022-10-16T10:57:44.404Z,53.45
2022-10-16T11:00:29.950Z,54.11
2022-10-16T11:03:09.650Z,52.61
2022-10-16T11:05:51.370Z,51.26
2022-10-16T11:08:23.649Z,50.77
2022-10-16T11:10:59.867Z,52.65
2022-10-16T11:13:43.481Z,52.01
2022-10-16T11:16:38.683Z,51.77
2022-10-16T11:19:14.872Z,51.40
2022-10-16T11:21:45.914Z,52.39
2022-10-16T11:24:35.699Z,50.46
2022-10-16T11:27:04.044Z,49.83
2022-10-16T11:29:30.878Z,52.50
2022-10-16T11:32:13.410Z,50.40
2022-10-16T11:34:46.113Z,51.01
2022-10-16T11:37:15.568Z,51.47
2022-10-16T11:39:43.364Z,49.31
2022-10-16T11:42:14.393Z,51.64
2022-10-16T11:44:49.932Z,49.80
2022-10-16T11:50:40.989Z,49.23
2022-10-16T11:53:25.784Z,49.03
2022-10-16T11:55:52.984Z,50.17
2022-10-16T11:58:36.133Z,49.56
2022-10-16T12:01:21.710Z,49.81
2022-10-16T12:04:15.808Z,50.23
2022-10-16T12:06:44.283Z,50.16
2022-10-16T12:09:40.405Z,50.11
2022-10-16T12:12:37.482Z,52.18
2022-10-16T12:15:22.227Z,50.37
2022-10-16T12:17:56.908Z,51.35
2022-10-16T12:20:34.157Z,52.98
2022-10-16T12:23:05.345Z,52.52
2022-10-16T12:25:36.709Z,51.60
2022-10-16T12:28:07.198Z,52.97
2022-10-16T12:30:36.605Z,49.92
2022-10-16T12:33:07.717Z,51.27
2022-10-16T12:35:45.429Z,51.48
2022-10-16T12:38:25.593Z,52.52
2022-10-16T12:41:06.337Z,52.54
2022-10-16T12:43:32.856Z,51.24
2022-10-16T12:46:22.256Z,51.59
2022-10-16T12:49:05.502Z,51.20
2022-10-16T12:51:32.825Z,51.31
2022-10-16T12:54:20.920Z,51.05
2022-10-16T12:56:50.393Z,50.98
2022-10-16T12:59:22.667Z,51.47
2022-10-16T13:02:14.072Z,52.35
2022-10-16T13:05:21.082Z,52.44
2022-10-16T13:08:28.958Z,52.50
2022-10-16T13:11:01.430Z,52.88
2022-10-16T13:13:35.765Z,53.34
2022-10-16T13:16:36.427Z,51.46
2022-10-16T13:19:28.147Z,53.92
2022-10-16T13:22:03.706Z,54.43
2022-10-16T13:24:55.106Z,54.45
2022-10-16T13:27:46.767Z,54.30
2022-10-16T13:30:30.807Z,54.49
2022-10-16T13:33:08.479Z,56.10
2022-10-16T13:35:35.789Z,54.66
2022-10-16T13:38:23.319Z,55.08
2022-10-16T13:41:13.139Z,54.14
2022-10-16T13:43:50.975Z,54.05
2022-10-16T13:46:21.960Z,55.03
2022-10-16T13:48:59.143Z,53.96
2022-10-16T13:51:25.876Z,54.34
2022-10-16T13:53:52.619Z,54.87
2022-10-16T13:56:21.266Z,55.57
2022-10-16T13:58:48.390Z,56.19
2022-10-16T14:01:20.218Z,55.62
2022-10-16T14:03:47.444Z,56.62
2022-10-16T14:06:17.122Z,55.50
2022-10-16T14:08:45.272Z,56.15
2022-10-16T14:11:11.877Z,55.63
2022-10-16T14:13:44.411Z,56.58
2022-10-16T14:16:18.245Z,55.51
2022-10-16T14:18:47.086Z,54.94
2022-10-16T14:21:14.609Z,54.90
2022-10-16T14:23:41.625Z,55.12
2022-10-16T14:26:11.210Z,55.50
2022-10-16T14:28:38.180Z,55.61
2022-10-16T14:31:24.920Z,56.36
2022-10-16T14:33:51.591Z,55.88
2022-10-16T14:36:19.598Z,55.97
2022-10-16T14:39:03.078Z,55.50
2022-10-16T14:41:31.057Z,56.31
2022-10-16T14:43:59.612Z,57.47
2022-10-16T14:46:39.673Z,58.06
2022-10-16T14:49:12.430Z,58.18
2022-10-16T14:51:42.025Z,57.77
2022-10-16T14:54:12.762Z,57.76
2022-10-16T14:56:48.890Z,57.59
2022-10-16T14:59:37.494Z,57.76
2022-10-16T15:02:19.216Z,57.91
2022-10-16T15:04:45.841Z,57.71
2022-10-16T15:07:12.387Z,57.33
2022-10-16T15:09:39.141Z,57.83
2022-10-16T15:12:05.926Z,57.93
2022-10-16T15:14:32.505Z,57.65
2022-10-16T15:16:59.086Z,57.97
2022-10-16T15:19:25.636Z,57.77
2022-10-16T15:21:53.325Z,57.70
2022-10-16T15:24:21.548Z,58.08
2022-10-16T15:26:48.341Z,58.21
2022-10-16T15:29:15.461Z,58.21
2022-10-16T15:31:45.026Z,58.30
2022-10-16T15:34:11.637Z,58.37
2022-10-16T15:36:38.953Z,58.46
2022-10-16T15:39:15.845Z,58.74
2022-10-16T15:41:42.771Z,59.37
2022-10-16T15:44:09.487Z,59.45
2022-10-16T15:46:37.174Z,59.32
2022-10-16T15:49:04.004Z,59.85
2022-10-16T15:51:30.589Z,59.36
2022-10-16T15:53:58.041Z,59.72
2022-10-16T15:56:26.396Z,59.61
2022-10-16T15:58:53.802Z,59.96
2022-10-16T16:01:20.534Z,60.08
2022-10-16T16:03:47.141Z,60.23
2022-10-16T16:06:14.094Z,60.35
2022-10-16T16:08:40.843Z,60.30
2022-10-16T16:11:12.610Z,61.05
2022-10-16T16:13:39.434Z,61.05
2022-10-16T16:16:08.055Z,61.74
2022-10-16T16:18:34.645Z,61.85
2022-10-16T16:21:01.222Z,62.13
2022-10-16T16:23:27.866Z,62.32
2022-10-16T16:26:14.302Z,62.62
2022-10-16T16:28:41.534Z,62.34
2022-10-16T16:31:08.308Z,62.38
2022-10-16T16:33:35.171Z,62.78
2022-10-16T16:36:02.885Z,63.35
2022-10-16T16:38:29.635Z,63.25
2022-10-16T16:40:56.580Z,63.55
2022-10-16T16:43:27.016Z,63.38
2022-10-16T16:45:55.007Z,63.61
2022-10-16T16:48:32.718Z,63.45
2022-10-16T16:51:06.655Z,63.64
2022-10-16T16:53:36.868Z,63.44
2022-10-16T16:56:04.963Z,63.38
2022-10-16T16:58:32.101Z,64.62
2022-10-16T17:01:19.362Z,64.07
2022-10-16T17:03:46.896Z,64.53
2022-10-16T17:06:14.061Z,64.36
2022-10-16T17:08:40.915Z,64.06
2022-10-16T17:11:07.673Z,64.22
2022-10-16T17:13:38.663Z,63.86
2022-10-16T17:16:06.325Z,64.08
2022-10-16T17:18:33.322Z,64.02
2022-10-16T17:21:04.378Z,64.04
2022-10-16T17:23:31.053Z,63.79
2022-10-16T17:25:58.080Z,64.00
2022-10-16T17:28:25.272Z,64.22
2022-10-16T17:30:52.005Z,64.32
2022-10-16T17:33:18.892Z,64.67
2022-10-16T17:35:46.503Z,64.61
2022-10-16T17:38:13.984Z,65.01
2022-10-16T17:40:40.918Z,65.11
2022-10-16T17:43:08.403Z,65.40
2022-10-16T17:45:39.140Z,65.22
2022-10-16T17:48:06.121Z,64.98
2022-10-16T17:50:32.826Z,65.31
2022-10-16T17:52:59.403Z,65.35
2022-10-16T17:55:27.292Z,65.40
2022-10-16T17:57:54.111Z,65.26
2022-10-16T18:00:20.734Z,65.06
2022-10-16T18:02:49.853Z,65.07
2022-10-16T18:05:29.871Z,64.94
2022-10-16T18:07:56.502Z,64.68
2022-10-16T18:10:23.130Z,64.79
2022-10-16T18:12:49.992Z,64.67
2022-10-16T18:15:16.727Z,64.11
2022-10-16T18:17:43.619Z,63.71
2022-10-16T18:20:10.802Z,63.92
2022-10-16T18:22:37.655Z,63.90
2022-10-16T18:25:05.530Z,63.94
2022-10-16T18:27:32.806Z,63.81
2022-10-16T18:30:00.181Z,63.68
2022-10-16T18:32:27.225Z,63.32
2022-10-16T18:34:54.613Z,63.33
2022-10-16T18:37:21.742Z,63.78
2022-10-16T18:39:51.147Z,64.06
2022-10-16T18:42:17.894Z,64.04
2022-10-16T18:44:46.840Z,63.99
2022-10-16T18:47:15.650Z,63.40
2022-10-16T18:49:44.356Z,63.10
2022-10-16T18:52:10.932Z,63.26
2022-10-16T18:54:37.624Z,62.62
2022-10-16T18:57:04.530Z,62.67
2022-10-16T18:59:42.378Z,62.57
2022-10-16T19:02:09.593Z,63.38
2022-10-16T19:04:36.163Z,63.10
2022-10-16T19:07:02.816Z,63.03
2022-10-16T19:09:29.470Z,63.05
2022-10-16T19:11:57.378Z,63.52
2022-10-16T19:14:25.168Z,63.22
2022-10-16T19:16:51.745Z,62.93
2022-10-16T19:19:18.590Z,62.70
2022-10-16T19:21:45.388Z,62.63
2022-10-16T19:24:15.377Z,62.81
2022-10-16T19:26:42.449Z,63.21
2022-10-16T19:29:09.876Z,62.79
2022-10-16T19:31:36.609Z,62.71
2022-10-16T19:34:04.228Z,62.55
2022-10-16T19:36:32.381Z,63.03
2022-10-16T19:39:06.819Z,62.77
2022-10-16T19:41:33.821Z,62.62
2022-10-16T19:44:04.254Z,62.33
2022-10-16T19:46:31.151Z,62.62
2022-10-16T19:48:59.079Z,62.76
2022-10-16T19:51:26.306Z,62.46
2022-10-16T19:53:57.468Z,62.21
2022-10-16T19:56:24.846Z,62.52
2022-10-16T19:58:51.780Z,62.63
2022-10-16T20:01:18.616Z,61.84
2022-10-16T20:03:45.968Z,62.50
2022-10-16T20:06:12.718Z,62.19
2022-10-16T20:08:39.946Z,62.72
2022-10-16T20:11:06.960Z,62.90
2022-10-16T20:13:36.209Z,63.74
2022-10-16T20:16:05.269Z,63.24
2022-10-16T20:18:31.927Z,63.25
2022-10-16T20:20:58.486Z,63.29
2022-10-16T20:23:25.279Z,63.82
2022-10-16T20:25:52.907Z,63.52
2022-10-16T20:28:22.610Z,63.66
2022-10-16T20:30:49.891Z,63.61
2022-10-16T20:33:16.709Z,63.68
2022-10-16T20:35:48.570Z,63.71
2022-10-16T20:38:15.783Z,63.18
2022-10-16T20:40:44.653Z,63.02
2022-10-16T20:43:15.547Z,63.10
2022-10-16T20:45:42.244Z,62.96
2022-10-16T20:48:08.895Z,62.99
2022-10-16T20:50:35.595Z,62.65
2022-10-16T20:53:02.295Z,62.26
2022-10-16T20:55:28.973Z,62.65
2022-10-16T20:57:56.122Z,62.40
2022-10-16T21:00:23.041Z,62.42
2022-10-16T21:02:50.399Z,62.59
2022-10-16T21:05:17.090Z,62.39
2022-10-16T21:07:43.792Z,61.76
2022-10-16T21:10:10.544Z,61.68
2022-10-16T21:12:37.206Z,61.84
2022-10-16T21:15:19.191Z,61.49
2022-10-16T21:17:45.848Z,61.92
2022-10-16T21:20:12.514Z,62.08
2022-10-16T21:22:39.169Z,62.30
2022-10-16T21:25:06.413Z,62.22
2022-10-16T21:27:38.106Z,62.45
2022-10-16T21:30:06.714Z,61.79
2022-10-16T21:32:35.981Z,62.78
2022-10-16T21:35:02.638Z,62.58
2022-10-16T21:37:29.271Z,62.85
2022-10-16T21:39:56.333Z,62.33
2022-10-16T21:42:23.015Z,61.96
2022-10-16T21:44:49.652Z,61.94
2022-10-16T21:47:16.242Z,61.95
2022-10-16T21:49:42.923Z,61.69
2022-10-16T21:52:09.577Z,62.10
2022-10-16T21:54:36.321Z,62.33
2022-10-16T21:59:30.846Z,62.19
2022-10-16T22:01:57.467Z,62.01
2022-10-16T22:04:24.164Z,61.99
2022-10-16T22:06:50.795Z,61.94
2022-10-16T22:09:17.427Z,61.52
2022-10-16T22:11:44.468Z,61.84
2022-10-16T22:14:13.180Z,61.68
2022-10-16T22:16:39.921Z,61.31
2022-10-16T22:19:09.326Z,61.56
2022-10-16T22:25:16.691Z,61.38
2022-10-16T22:27:43.320Z,61.92
2022-10-16T22:30:10.409Z,61.72
2022-10-16T22:32:37.083Z,61.84
2022-10-16T22:35:03.809Z,61.71
2022-10-16T22:37:30.604Z,61.36
2022-10-16T22:39:58.992Z,61.20
2022-10-16T22:42:27.606Z,61.14
2022-10-16T22:44:54.209Z,61.21
2022-10-16T22:47:20.847Z,61.16
2022-10-16T22:49:47.822Z,61.29
2022-10-16T22:52:14.436Z,61.31
2022-10-16T22:54:41.065Z,61.39
2022-10-16T22:57:07.640Z,61.81
2022-10-16T22:59:34.293Z,61.75
2022-10-16T23:02:00.922Z,61.73
2022-10-16T23:04:27.500Z,62.40
2022-10-16T23:06:54.451Z,62.59
2022-10-16T23:09:22.268Z,62.40
2022-10-16T23:11:48.890Z,62.81
2022-10-16T23:14:20.222Z,63.41
2022-10-16T23:16:46.925Z,63.99
2022-10-16T23:19:13.532Z,63.59
2022-10-16T23:21:40.145Z,63.90
2022-10-16T23:24:06.877Z,63.87
2022-10-16T23:26:33.793Z,63.57
2022-10-16T23:29:00.669Z,63.63
2022-10-16T23:31:27.593Z,63.98
2022-10-16T23:33:55.861Z,64.35
2022-10-16T23:36:22.668Z,64.39
2022-10-16T23:38:49.671Z,64.39
2022-10-16T23:41:16.448Z,64.84
2022-10-16T23:43:43.120Z,64.80
2022-10-16T23:46:13.418Z,64.58
2022-10-16T23:48:40.126Z,64.94
2022-10-16T23:51:09.835Z,65.32
2022-10-16T23:53:36.507Z,65.06
2022-10-16T23:56:03.163Z,65.22
2022-10-16T23:58:29.805Z,65.54
